createdAt,value
2023-05-01T00:02:42.206Z,1.63
2023-05-01T00:05:44.932Z,1.15
2023-05-01T00:08:47.779Z,1.20
2023-05-01T00:11:51.381Z,1.10
2023-05-01T00:14:54.101Z,1.20
2023-05-01T00:17:56.517Z,1.27
2023-05-01T00:20:59.037Z,1.05
2023-05-01T00:24:01.274Z,1.13
2023-05-01T00:27:05.688Z,1.15
2023-05-01T00:30:09.348Z,1.38
2023-05-01T00:33:12.044Z,1.27
2023-05-01T00:36:14.720Z,1.40
2023-05-01T00:39:17.152Z,1.20
2023-05-01T00:42:20.967Z,1.52
2023-05-01T00:45:23.257Z,1.20
2023-05-01T00:48:25.959Z,1.20
2023-05-01T00:51:29.386Z,1.48
2023-05-01T00:54:32.734Z,1.40
2023-05-01T00:57:37.104Z,1.30
2023-05-01T01:00:39.389Z,1.17
2023-05-01T01:03:41.701Z,1.20
2023-05-01T01:06:51.177Z,1.30
2023-05-01T01:10:01.384Z,1.60
2023-05-01T01:13:10.885Z,1.52
2023-05-01T01:16:19.092Z,1.70
2023-05-01T01:19:56.221Z,1.65
2023-05-01T01:23:10.076Z,1.40
2023-05-01T01:26:24.661Z,2.13
2023-05-01T01:29:41.844Z,1.88
2023-05-01T01:33:01.330Z,1.30
2023-05-01T01:36:08.114Z,1.38
2023-05-01T01:39:27.434Z,1.48
2023-05-01T01:42:33.365Z,1.40
2023-05-01T01:45:38.579Z,1.55
2023-05-01T01:48:43.307Z,1.55
2023-05-01T01:51:47.568Z,1.73
2023-05-01T01:54:53.042Z,1.73
2023-05-01T01:57:55.918Z,1.63
2023-05-01T02:00:59.148Z,1.70
2023-05-01T02:04:02.177Z,1.50
2023-05-01T02:07:07.207Z,1.58
2023-05-01T02:10:11.795Z,1.65
2023-05-01T02:13:14.702Z,2.00
2023-05-01T02:16:18.029Z,1.50
2023-05-01T02:19:21.248Z,2.10
2023-05-01T02:22:28.340Z,1.77
2023-05-01T02:25:32.204Z,1.60
2023-05-01T02:28:34.942Z,1.83
2023-05-01T02:31:37.488Z,1.45
2023-05-01T02:34:40.190Z,1.35
2023-05-01T02:37:44.557Z,1.70
2023-05-01T02:40:50.902Z,1.33
2023-05-01T02:43:56.920Z,1.40
2023-05-01T02:47:02.947Z,1.83
2023-05-01T02:50:08.128Z,1.92
2023-05-01T02:53:12.491Z,1.90
2023-05-01T02:56:26.789Z,1.40
2023-05-01T02:59:29.936Z,1.65
2023-05-01T03:02:33.576Z,1.35
2023-05-01T03:05:36.431Z,2.10
2023-05-01T03:08:40.017Z,1.67
2023-05-01T03:11:42.389Z,1.55
2023-05-01T03:14:44.630Z,1.55
2023-05-01T03:17:46.976Z,1.77
2023-05-01T03:20:53.520Z,1.50
2023-05-01T03:23:57.717Z,1.98
2023-05-01T03:27:00.142Z,1.30
2023-05-01T03:30:04.682Z,1.65
2023-05-01T03:33:11.310Z,1.63
2023-05-01T03:36:16.063Z,1.40
2023-05-01T03:39:21.587Z,1.50
2023-05-01T03:42:42.521Z,1.75
2023-05-01T03:45:53.483Z,1.80
2023-05-01T03:48:55.801Z,2.10
2023-05-01T03:51:58.640Z,1.80
2023-05-01T03:55:02.332Z,1.75
2023-05-01T03:58:10.883Z,1.70
2023-05-01T04:01:14.379Z,1.60
2023-05-01T04:04:19.417Z,1.50
2023-05-01T04:07:27.987Z,1.63
2023-05-01T04:10:34.085Z,1.77
2023-05-01T04:13:39.848Z,2.13
2023-05-01T04:16:43.132Z,1.70
2023-05-01T04:19:47.888Z,2.30
2023-05-01T04:22:50.342Z,2.00
2023-05-01T04:25:54.672Z,2.15
2023-05-01T04:28:57.094Z,2.25
2023-05-01T04:32:01.499Z,1.88
2023-05-01T04:35:04.916Z,1.83
2023-05-01T04:38:08.742Z,2.20
2023-05-01T04:41:12.956Z,2.10
2023-05-01T04:44:15.333Z,1.73
2023-05-01T04:47:17.659Z,2.17
2023-05-01T04:50:20.507Z,2.10
2023-05-01T04:53:22.824Z,1.80
2023-05-01T04:56:26.881Z,1.67
2023-05-01T04:59:33.266Z,2.00
2023-05-01T05:02:36.145Z,1.85
2023-05-01T05:05:38.920Z,1.60
2023-05-01T05:08:42.732Z,2.60
2023-05-01T05:11:47.491Z,2.03
2023-05-01T05:14:56.612Z,1.70
2023-05-01T05:17:59.303Z,1.85
2023-05-01T05:21:04.076Z,1.75
2023-05-01T05:24:06.553Z,1.77
2023-05-01T05:27:10.285Z,2.13
2023-05-01T05:30:13.439Z,1.33
2023-05-01T05:33:15.945Z,1.98
2023-05-01T05:36:18.269Z,1.90
2023-05-01T05:39:22.334Z,1.90
2023-05-01T05:42:26.438Z,2.13
2023-05-01T05:45:29.228Z,1.70
2023-05-01T05:48:32.132Z,1.50
2023-05-01T05:51:34.459Z,1.75
2023-05-01T05:54:37.640Z,1.70
2023-05-01T05:57:42.018Z,2.03
2023-05-01T06:00:46.567Z,1.88
2023-05-01T06:03:49.009Z,1.70
2023-05-01T06:06:51.558Z,2.60
2023-05-01T06:09:53.888Z,1.92
2023-05-01T06:13:11.389Z,2.60
2023-05-01T06:19:21.918Z,1.88
2023-05-01T06:22:28.113Z,1.65
2023-05-01T06:25:49.110Z,1.75
2023-05-01T06:28:53.044Z,1.92
2023-05-01T06:31:56.003Z,1.50
2023-05-01T06:34:58.665Z,1.83
2023-05-01T06:38:02.993Z,1.85
2023-05-01T06:41:06.566Z,2.10
2023-05-01T06:44:10.630Z,1.70
2023-05-01T06:47:13.910Z,1.80
2023-05-01T06:50:16.247Z,1.58
2023-05-01T06:53:18.630Z,1.88
2023-05-01T06:56:21.736Z,1.23
2023-05-01T06:59:25.464Z,1.63
2023-05-01T07:02:27.882Z,1.52
2023-05-01T07:05:30.698Z,1.30
2023-05-01T07:08:32.991Z,1.60
2023-05-01T07:11:35.765Z,1.52
2023-05-01T07:14:41.520Z,1.25
2023-05-01T07:17:43.948Z,1.30
2023-05-01T07:20:46.305Z,1.20
2023-05-01T07:23:48.695Z,1.50
2023-05-01T07:26:51.644Z,1.40
2023-05-01T07:29:56.073Z,1.45
2023-05-01T07:32:59.853Z,1.30
2023-05-01T07:36:03.687Z,1.35
2023-05-01T07:39:06.702Z,1.48
2023-05-01T07:42:09.009Z,1.30
2023-05-01T07:45:12.890Z,1.60
2023-05-01T07:48:16.364Z,1.75
2023-05-01T07:51:19.131Z,1.50
2023-05-01T07:54:22.832Z,1.10
2023-05-01T07:57:25.730Z,1.40
2023-05-01T08:00:29.485Z,1.40
2023-05-01T08:03:32.833Z,1.20
2023-05-01T08:06:35.420Z,1.00
2023-05-01T08:09:37.825Z,1.23
2023-05-01T08:12:40.213Z,1.55
2023-05-01T08:15:45.508Z,1.25
2023-05-01T08:18:47.750Z,1.50
2023-05-01T08:21:50.104Z,1.20
2023-05-01T08:24:52.447Z,1.38
2023-05-01T08:27:54.802Z,1.20
2023-05-01T08:30:58.684Z,1.17
2023-05-01T08:34:01.122Z,1.15
2023-05-01T08:37:03.476Z,1.40
2023-05-01T08:40:09.095Z,1.20
2023-05-01T08:43:13.091Z,1.38
2023-05-01T08:46:24.209Z,1.45
2023-05-01T08:49:27.526Z,1.65
2023-05-01T08:52:30.757Z,1.70
2023-05-01T08:55:35.207Z,1.50
2023-05-01T08:58:38.085Z,1.80
2023-05-01T09:01:43.325Z,1.27
2023-05-01T09:04:47.754Z,1.60
2023-05-01T09:07:50.185Z,1.30
2023-05-01T09:10:55.490Z,1.50
2023-05-01T09:13:58.121Z,2.70
2023-05-01T09:17:01.930Z,1.60
2023-05-01T09:20:08.546Z,1.60
2023-05-01T09:23:11.655Z,1.52
2023-05-01T09:26:14.879Z,1.42
2023-05-01T09:29:37.373Z,1.33
2023-05-01T09:32:42.597Z,1.52
2023-05-01T09:35:49.364Z,1.42
2023-05-01T09:38:51.782Z,1.20
2023-05-01T09:41:54.709Z,1.30
2023-05-01T09:44:56.961Z,1.25
2023-05-01T09:48:12.121Z,1.55
2023-05-01T09:51:22.292Z,1.55
2023-05-01T09:54:24.985Z,1.73
2023-05-01T09:57:35.185Z,1.45
2023-05-01T10:00:48.020Z,1.38
2023-05-01T10:03:56.696Z,1.25
2023-05-01T10:06:59.961Z,1.20
2023-05-01T10:10:17.621Z,1.40
2023-05-01T10:13:19.877Z,1.40
2023-05-01T10:16:29.880Z,1.17
2023-05-01T10:19:33.516Z,1.33
2023-05-01T10:22:35.699Z,1.20
2023-05-01T10:25:39.085Z,1.10
2023-05-01T10:28:41.889Z,1.08
2023-05-01T10:31:44.157Z,1.17
2023-05-01T10:34:50.391Z,1.10
2023-05-01T10:37:59.142Z,1.50
2023-05-01T10:41:02.088Z,1.15
2023-05-01T10:44:20.474Z,0.90
2023-05-01T10:47:44.679Z,0.98
2023-05-01T10:51:12.965Z,0.73
2023-05-01T10:54:28.208Z,0.95
2023-05-01T10:57:46.315Z,1.15
2023-05-01T11:01:28.143Z,1.42
2023-05-01T11:04:53.272Z,0.80
2023-05-01T11:08:28.916Z,1.00
2023-05-01T11:11:49.323Z,0.80
2023-05-01T11:15:08.336Z,0.70
2023-05-01T11:18:12.050Z,0.65
2023-05-01T11:21:15.089Z,1.20
2023-05-01T11:24:20.079Z,0.95
2023-05-01T11:27:26.339Z,0.65
2023-05-01T11:30:37.225Z,0.65
2023-05-01T11:33:41.723Z,1.00
2023-05-01T11:36:50.878Z,1.23
2023-05-01T11:39:53.699Z,0.80
2023-05-01T11:43:02.302Z,0.80
2023-05-01T11:46:04.780Z,1.10
2023-05-01T11:49:08.431Z,1.20
2023-05-01T11:52:10.716Z,0.90
2023-05-01T11:55:13.035Z,0.82
2023-05-01T11:58:30.770Z,1.00
2023-05-01T12:01:37.387Z,0.80
2023-05-01T12:04:39.752Z,1.00
2023-05-01T12:07:42.069Z,0.90
2023-05-01T12:10:45.115Z,1.00
2023-05-01T12:13:55.281Z,0.85
2023-05-01T12:17:00.798Z,1.10
2023-05-01T12:20:04.987Z,1.10
2023-05-01T12:23:11.358Z,1.23
2023-05-01T12:26:17.864Z,1.27
2023-05-01T12:29:21.740Z,1.20
2023-05-01T12:32:33.771Z,0.98
2023-05-01T12:35:36.655Z,0.95
2023-05-01T12:38:39.082Z,0.98
2023-05-01T12:41:44.479Z,0.93
2023-05-01T12:44:48.405Z,1.00
2023-05-01T12:47:52.024Z,1.20
2023-05-01T12:50:57.115Z,0.82
2023-05-01T12:53:59.646Z,0.60
2023-05-01T12:57:06.691Z,0.80
2023-05-01T13:00:12.834Z,0.75
2023-05-01T13:03:18.105Z,0.93
2023-05-01T13:06:20.891Z,0.90
2023-05-01T13:09:23.540Z,0.80
2023-05-01T13:12:26.855Z,0.80
2023-05-01T13:15:30.925Z,0.95
2023-05-01T13:18:34.311Z,0.77
2023-05-01T13:21:36.705Z,0.70
2023-05-01T13:24:39.815Z,0.70
2023-05-01T13:27:42.311Z,0.70
2023-05-01T13:30:46.192Z,0.80
2023-05-01T13:33:49.764Z,0.90
2023-05-01T13:36:52.340Z,0.70
2023-05-01T13:39:58.601Z,0.60
2023-05-01T13:43:05.311Z,0.55
2023-05-01T13:46:11.663Z,0.60
2023-05-01T13:49:14.379Z,1.00
2023-05-01T13:52:19.361Z,1.40
2023-05-01T13:55:22.064Z,1.98
2023-05-01T13:58:24.284Z,1.50
2023-05-01T14:01:27.921Z,2.08
2023-05-01T14:04:30.384Z,2.30
2023-05-01T14:07:32.674Z,2.22
2023-05-01T14:10:34.993Z,1.98
2023-05-01T14:13:40.879Z,1.80
2023-05-01T14:16:47.344Z,1.83
2023-05-01T14:19:52.195Z,1.33
2023-05-01T14:22:54.809Z,1.58
2023-05-01T14:25:57.289Z,1.23
2023-05-01T14:28:59.637Z,1.67
2023-05-01T14:32:06.191Z,1.50
2023-05-01T14:35:09.634Z,1.40
2023-05-01T14:38:13.592Z,1.63
2023-05-01T14:41:17.446Z,1.27
2023-05-01T14:44:20.699Z,2.13
2023-05-01T14:47:24.543Z,1.75
2023-05-01T14:50:26.760Z,2.00
2023-05-01T14:53:31.857Z,2.08
2023-05-01T14:56:34.116Z,1.83
2023-05-01T14:59:36.460Z,1.83
2023-05-01T15:02:40.176Z,1.92
2023-05-01T15:05:42.605Z,2.15
2023-05-01T15:08:45.524Z,2.42
2023-05-01T15:11:48.003Z,2.55
2023-05-01T15:14:50.373Z,2.58
2023-05-01T15:17:54.145Z,3.00
2023-05-01T15:20:56.460Z,2.22
2023-05-01T15:23:58.754Z,2.30
2023-05-01T15:27:03.304Z,2.75
2023-05-01T15:30:07.189Z,2.28
2023-05-01T15:33:11.451Z,2.70
2023-05-01T15:36:14.099Z,2.25
2023-05-01T15:39:16.886Z,2.63
2023-05-01T15:42:19.612Z,2.20
2023-05-01T15:45:22.186Z,1.90
2023-05-01T15:48:26.007Z,2.10
2023-05-01T15:51:28.353Z,1.65
2023-05-01T15:54:30.747Z,2.10
2023-05-01T15:57:33.749Z,2.25
2023-05-01T16:00:38.187Z,2.13
2023-05-01T16:03:44.966Z,2.80
2023-05-01T16:06:47.369Z,2.42
2023-05-01T16:09:49.788Z,1.73
2023-05-01T16:12:52.868Z,1.90
2023-05-01T16:15:55.201Z,1.95
2023-05-01T16:18:59.609Z,1.75
2023-05-01T16:22:03.451Z,2.50
2023-05-01T16:25:07.593Z,2.30
2023-05-01T16:28:09.986Z,2.63
2023-05-01T16:31:26.096Z,2.40
2023-05-01T16:34:31.046Z,2.45
2023-05-01T16:37:33.972Z,2.97
2023-05-01T16:40:36.612Z,1.95
2023-05-01T16:43:38.930Z,2.42
2023-05-01T16:46:42.038Z,2.80
2023-05-01T16:49:46.772Z,3.80
2023-05-01T16:52:49.875Z,3.10
2023-05-01T16:55:53.341Z,5.75
2023-05-01T16:58:56.329Z,3.00
2023-05-01T17:02:00.579Z,3.67
2023-05-01T17:05:10.863Z,12.30
2023-05-01T17:08:13.122Z,6.28
2023-05-01T17:11:15.618Z,6.75
2023-05-01T17:14:17.892Z,6.65
2023-05-01T17:17:21.070Z,7.20
2023-05-01T17:20:25.625Z,3.97
2023-05-01T17:23:30.908Z,3.25
2023-05-01T17:26:33.243Z,2.95
2023-05-01T17:29:35.589Z,2.75
2023-05-01T17:32:38.013Z,2.65
2023-05-01T17:35:41.808Z,2.33
2023-05-01T17:38:44.173Z,2.72
2023-05-01T17:41:46.524Z,2.35
2023-05-01T17:44:48.769Z,2.40
2023-05-01T17:47:52.689Z,2.90
2023-05-01T17:50:56.644Z,3.22
2023-05-01T17:53:58.961Z,2.60
2023-05-01T17:57:02.916Z,3.13
2023-05-01T18:00:06.873Z,3.00
2023-05-01T18:03:14.686Z,3.55
2023-05-01T18:06:18.516Z,2.97
2023-05-01T18:09:20.885Z,3.00
2023-05-01T18:12:23.371Z,2.85
2023-05-01T18:15:25.921Z,3.47
2023-05-01T18:18:28.462Z,3.40
2023-05-01T18:21:32.740Z,3.42
2023-05-01T18:24:35.045Z,3.67
2023-05-01T18:27:38.186Z,5.18
2023-05-01T18:30:40.474Z,4.40
2023-05-01T18:33:42.718Z,3.55
2023-05-01T18:36:48.302Z,3.30
2023-05-01T18:39:50.810Z,3.33
2023-05-01T18:42:53.268Z,4.18
2023-05-01T18:45:55.548Z,6.53
2023-05-01T18:48:57.884Z,6.03
2023-05-01T18:52:01.581Z,4.18
2023-05-01T18:55:04.371Z,3.60
2023-05-01T18:58:08.254Z,3.92
2023-05-01T19:01:10.733Z,3.95
2023-05-01T19:04:13.056Z,4.20
2023-05-01T19:07:16.766Z,5.10
2023-05-01T19:10:19.061Z,4.97
2023-05-01T19:13:21.336Z,5.85
2023-05-01T19:16:24.045Z,6.20
2023-05-01T19:19:26.788Z,6.68
2023-05-01T19:22:30.407Z,8.05
2023-05-01T19:25:33.550Z,7.05
2023-05-01T19:28:37.189Z,7.80
2023-05-01T19:31:40.881Z,6.75
2023-05-01T19:34:43.235Z,8.30
2023-05-01T19:37:50.135Z,7.60
2023-05-01T19:40:53.059Z,7.13
2023-05-01T19:43:55.358Z,7.68
2023-05-01T19:46:57.639Z,8.88
2023-05-01T19:50:00.398Z,9.05
2023-05-01T19:53:05.421Z,7.30
2023-05-01T19:56:08.407Z,7.40
2023-05-01T19:59:10.773Z,7.85
2023-05-01T20:02:13.161Z,7.82
2023-05-01T20:05:15.615Z,8.35
2023-05-01T20:08:19.408Z,8.15
2023-05-01T20:11:22.116Z,7.53
2023-05-01T20:14:24.413Z,8.05
2023-05-01T20:17:27.228Z,8.15
2023-05-01T20:20:30.351Z,8.25
2023-05-01T20:23:34.681Z,8.15
2023-05-01T20:26:38.370Z,8.60
2023-05-01T20:29:41.051Z,8.38
2023-05-01T20:32:44.266Z,9.68
2023-05-01T20:35:47.460Z,8.82
2023-05-01T20:38:53.075Z,10.07
2023-05-01T20:41:56.085Z,9.13
2023-05-01T20:44:58.483Z,9.40
2023-05-01T20:48:01.879Z,9.85
2023-05-01T20:51:04.521Z,11.55
2023-05-01T20:54:08.233Z,9.13
2023-05-01T20:57:10.749Z,10.00
2023-05-01T21:00:14.947Z,10.07
2023-05-01T21:03:17.378Z,10.25
2023-05-01T21:06:20.049Z,9.73
2023-05-01T21:09:23.672Z,9.50
2023-05-01T21:12:28.688Z,11.65
2023-05-01T21:15:31.911Z,10.90
2023-05-01T21:18:34.489Z,10.75
2023-05-01T21:21:37.071Z,12.38
2023-05-01T21:24:43.138Z,11.00
2023-05-01T21:27:45.656Z,11.88
2023-05-01T21:30:49.406Z,11.95
2023-05-01T21:33:53.289Z,13.02
2023-05-01T21:36:55.597Z,13.00
2023-05-01T21:39:59.977Z,14.50
2023-05-01T21:43:02.487Z,11.88
2023-05-01T21:46:04.882Z,12.85
2023-05-01T21:49:11.299Z,13.82
2023-05-01T21:52:14.858Z,14.18
2023-05-01T21:55:20.187Z,14.00
2023-05-01T21:58:22.489Z,14.52
2023-05-01T22:01:25.162Z,15.40
2023-05-01T22:04:28.251Z,16.77
2023-05-01T22:07:30.579Z,16.92
2023-05-01T22:10:34.534Z,14.95
2023-05-01T22:13:36.764Z,15.35
2023-05-01T22:16:39.028Z,16.75
2023-05-01T22:19:41.279Z,15.40
2023-05-01T22:22:43.591Z,15.63
2023-05-01T22:25:47.306Z,16.65
2023-05-01T22:28:50.018Z,16.33
2023-05-01T22:31:52.412Z,17.23
2023-05-01T22:34:55.145Z,15.68
2023-05-01T22:37:58.165Z,16.00
2023-05-01T22:41:01.810Z,16.58
2023-05-01T22:44:04.058Z,16.55
2023-05-01T22:47:07.114Z,17.02
2023-05-01T22:50:10.189Z,17.17
2023-05-01T22:53:12.671Z,16.85
2023-05-01T22:56:18.481Z,16.67
2023-05-01T22:59:21.830Z,16.45
2023-05-01T23:02:24.362Z,17.90
2023-05-01T23:05:26.634Z,17.65
2023-05-01T23:08:28.880Z,17.02
2023-05-01T23:11:33.258Z,17.63
2023-05-01T23:14:36.896Z,18.02
2023-05-01T23:17:40.533Z,16.90
2023-05-01T23:20:43.910Z,18.15
2023-05-01T23:23:46.602Z,16.60
2023-05-01T23:26:50.277Z,16.55
2023-05-01T23:29:57.432Z,17.23
2023-05-01T23:33:00.729Z,17.35
2023-05-01T23:36:03.383Z,18.33
2023-05-01T23:39:05.715Z,18.65
2023-05-01T23:42:09.365Z,17.38
2023-05-01T23:45:11.848Z,19.00
2023-05-01T23:48:14.326Z,18.42
2023-05-01T23:51:16.581Z,17.70
2023-05-01T23:54:19.452Z,18.10
2023-05-01T23:57:23.397Z,18.63
